createdAt,value
2019-05-18T00:00:00.366Z,100706.76
2019-05-18T00:02:28.262Z,100699.37
2019-05-18T00:04:56.311Z,100703.84
2019-05-18T00:07:24.531Z,100696.94
2019-05-18T00:09:52.406Z,100702.09
2019-05-18T00:12:22.121Z,100698.25
2019-05-18T00:14:50.009Z,100709.57
2019-05-18T00:17:25.454Z,100702.08
2019-05-18T00:19:48.341Z,100692.88
2019-05-18T00:22:16.191Z,100703.30
2019-05-18T00:24:43.883Z,100705.73
2019-05-18T00:27:11.897Z,100702.24
2019-05-18T00:29:40.372Z,100700.86
2019-05-18T00:32:08.070Z,100698.14
2019-05-18T00:34:35.903Z,100694.83
2019-05-18T00:37:04.200Z,100690.06
2019-05-18T00:39:31.997Z,100698.59
2019-05-18T00:41:59.760Z,100705.05
2019-05-18T00:44:29.364Z,100697.55
2019-05-18T00:46:57.530Z,100696.16
2019-05-18T00:49:26.812Z,100689.86
2019-05-18T00:51:54.704Z,100682.36
2019-05-18T00:54:22.453Z,100684.30
2019-05-18T00:56:50.183Z,100680.74
2019-05-18T00:59:18.487Z,100683.64
2019-05-18T01:01:46.403Z,100685.27
2019-05-18T01:04:14.143Z,100685.06
2019-05-18T01:06:42.749Z,100680.09
2019-05-18T01:09:10.665Z,100684.79
2019-05-18T01:11:40.427Z,100682.64
2019-05-18T01:14:08.512Z,100678.33
2019-05-18T01:16:36.357Z,100674.77
2019-05-18T01:19:04.248Z,100675.22
2019-05-18T01:21:32.011Z,100676.16
2019-05-18T01:24:00.181Z,100679.78
2019-05-18T01:26:28.936Z,100678.75
2019-05-18T01:29:02.062Z,100678.92
2019-05-18T01:31:29.790Z,100677.06
2019-05-18T01:33:58.063Z,100681.63
2019-05-18T01:36:26.010Z,100668.59
2019-05-18T01:38:53.732Z,100674.78
2019-05-18T01:41:21.825Z,100673.26
2019-05-18T01:43:50.038Z,100662.54
2019-05-18T01:46:17.805Z,100667.41
2019-05-18T01:48:46.248Z,100659.25
2019-05-18T01:51:15.258Z,100660.84
2019-05-18T01:53:43.002Z,100656.58
2019-05-18T01:56:10.908Z,100656.09
2019-05-18T01:58:39.737Z,100657.06
2019-05-18T02:01:07.932Z,100660.14
2019-05-18T02:03:35.687Z,100654.05
2019-05-18T02:06:03.445Z,100660.31
2019-05-18T02:08:31.290Z,100656.64
2019-05-18T02:10:59.418Z,100650.34
2019-05-18T02:13:27.152Z,100654.77
2019-05-18T02:15:55.082Z,100658.61
2019-05-18T02:18:29.084Z,100664.42
2019-05-18T02:20:54.163Z,100650.83
2019-05-18T02:23:22.010Z,100661.63
2019-05-18T02:25:51.739Z,100661.78
2019-05-18T02:28:21.125Z,100654.63
2019-05-18T02:30:52.271Z,100668.88
2019-05-18T02:33:21.872Z,100660.05
2019-05-18T02:35:49.628Z,100657.31
2019-05-18T02:38:18.151Z,100652.91
2019-05-18T02:40:47.053Z,100645.86
2019-05-18T02:43:16.182Z,100650.80
2019-05-18T02:45:44.104Z,100645.92
2019-05-18T02:48:12.036Z,100647.39
2019-05-18T02:50:42.243Z,100647.00
2019-05-18T02:53:10.169Z,100651.77
2019-05-18T02:55:39.867Z,100651.98
2019-05-18T02:58:07.737Z,100655.72
2019-05-18T03:00:36.915Z,100659.72
2019-05-18T03:03:05.136Z,100657.47
2019-05-18T03:05:32.864Z,100656.53
2019-05-18T03:08:00.806Z,100650.67
2019-05-18T03:10:28.950Z,100654.13
2019-05-18T03:12:57.150Z,100650.30
2019-05-18T03:15:25.574Z,100647.05
2019-05-18T03:17:53.320Z,100646.19
2019-05-18T03:20:22.380Z,100644.77
2019-05-18T03:22:52.420Z,100644.05
2019-05-18T03:25:20.567Z,100635.51
2019-05-18T03:27:49.726Z,100640.20
2019-05-18T03:30:19.687Z,100640.50
2019-05-18T03:32:47.668Z,100639.83
2019-05-18T03:35:16.319Z,100644.16
2019-05-18T03:37:44.433Z,100638.41
2019-05-18T03:40:13.282Z,100637.14
2019-05-18T03:42:43.511Z,100639.27
2019-05-18T03:45:12.691Z,100639.61
2019-05-18T03:47:42.504Z,100634.63
2019-05-18T03:50:11.152Z,100640.05
2019-05-18T03:52:40.216Z,100645.03
2019-05-18T03:55:10.876Z,100640.37
2019-05-18T03:57:38.599Z,100639.27
2019-05-18T04:00:06.749Z,100638.56
2019-05-18T04:02:36.094Z,100641.36
2019-05-18T04:05:04.506Z,100643.13
2019-05-18T04:07:32.253Z,100640.66
2019-05-18T04:10:00.084Z,100645.36
2019-05-18T04:12:27.958Z,100640.92
2019-05-18T04:14:56.655Z,100634.73
2019-05-18T04:17:24.537Z,100637.63
2019-05-18T04:19:52.402Z,100646.62
2019-05-18T04:22:20.555Z,100643.05
2019-05-18T04:24:48.533Z,100643.42
2019-05-18T04:27:16.292Z,100648.25
2019-05-18T04:29:46.325Z,100641.63
2019-05-18T04:32:14.723Z,100650.44
2019-05-18T04:34:45.348Z,100660.63
2019-05-18T04:37:13.420Z,100659.66
2019-05-18T04:39:41.108Z,100659.34
2019-05-18T04:42:08.876Z,100657.67
2019-05-18T04:44:37.810Z,100663.59
2019-05-18T04:47:05.619Z,100666.09
2019-05-18T04:49:34.925Z,100664.28
2019-05-18T04:52:02.806Z,100668.17
2019-05-18T04:54:32.298Z,100661.06
2019-05-18T04:57:00.172Z,100664.48
2019-05-18T04:59:28.272Z,100668.36
2019-05-18T05:01:56.211Z,100655.98
2019-05-18T05:04:24.100Z,100653.28
2019-05-18T05:06:51.802Z,100660.42
2019-05-18T05:09:21.479Z,100661.20
2019-05-18T05:11:49.368Z,100658.72
2019-05-18T05:14:17.106Z,100660.92
2019-05-18T05:16:44.803Z,100665.36
2019-05-18T05:19:13.807Z,100656.26
2019-05-18T05:21:41.543Z,100660.21
2019-05-18T05:24:09.405Z,100657.49
2019-05-18T05:26:39.475Z,100657.31
2019-05-18T05:29:08.356Z,100650.33
2019-05-18T05:31:36.093Z,100651.84
2019-05-18T05:34:03.795Z,100655.00
2019-05-18T05:36:31.659Z,100654.77
2019-05-18T05:38:59.483Z,100659.69
2019-05-18T05:41:27.218Z,100660.69
2019-05-18T05:43:56.803Z,100662.58
2019-05-18T05:46:26.409Z,100658.48
2019-05-18T05:48:57.457Z,100657.27
2019-05-18T05:51:25.447Z,100655.72
2019-05-18T05:53:53.725Z,100659.55
2019-05-18T05:56:21.560Z,100666.25
2019-05-18T05:58:49.270Z,100659.74
2019-05-18T06:01:17.111Z,100660.36
2019-05-18T06:03:45.006Z,100663.16
2019-05-18T06:06:12.699Z,100665.59
2019-05-18T06:08:40.419Z,100663.16
2019-05-18T06:11:08.280Z,100666.42
2019-05-18T06:13:36.035Z,100663.12
2019-05-18T06:16:04.179Z,100666.12
2019-05-18T06:18:32.173Z,100669.64
2019-05-18T06:21:00.123Z,100668.11
2019-05-18T06:23:27.816Z,100662.55
2019-05-18T06:25:55.729Z,100661.30
2019-05-18T06:28:23.473Z,100659.84
2019-05-18T06:30:52.604Z,100665.99
2019-05-18T06:33:20.469Z,100666.59
2019-05-18T06:35:48.284Z,100660.87
2019-05-18T06:38:16.257Z,100664.65
2019-05-18T06:40:44.084Z,100658.89
2019-05-18T06:43:11.797Z,100661.73
2019-05-18T06:45:39.743Z,100670.14
2019-05-18T06:48:07.595Z,100666.52
2019-05-18T06:50:35.480Z,100669.62
2019-05-18T06:53:03.376Z,100672.05
2019-05-18T06:55:32.087Z,100670.34
2019-05-18T06:58:00.788Z,100671.91
2019-05-18T07:00:28.710Z,100669.84
2019-05-18T07:02:56.437Z,100669.30
2019-05-18T07:05:25.815Z,100668.63
2019-05-18T07:07:53.856Z,100668.09
2019-05-18T07:10:21.766Z,100667.83
2019-05-18T07:12:49.481Z,100668.23
2019-05-18T07:15:17.695Z,100674.27
2019-05-18T07:17:45.538Z,100675.50
2019-05-18T07:20:15.458Z,100681.55
2019-05-18T07:22:43.162Z,100671.23
2019-05-18T07:25:11.166Z,100673.32
2019-05-18T07:27:39.089Z,100672.65
2019-05-18T07:30:08.959Z,100677.67
2019-05-18T07:32:37.252Z,100689.30
2019-05-18T07:35:06.296Z,100681.64
2019-05-18T07:37:34.253Z,100679.11
2019-05-18T07:40:02.566Z,100686.98
2019-05-18T07:42:30.500Z,100687.20
2019-05-18T07:44:58.208Z,100683.35
2019-05-18T07:47:25.938Z,100701.91
2019-05-18T07:49:55.750Z,100691.47
2019-05-18T07:52:23.531Z,100695.72
2019-05-18T07:54:51.274Z,100697.72
2019-05-18T07:57:19.274Z,100697.78
2019-05-18T07:59:46.993Z,100697.26
2019-05-18T08:02:15.257Z,100690.20
2019-05-18T08:04:43.125Z,100687.78
2019-05-18T08:07:10.873Z,100683.25
2019-05-18T08:09:38.586Z,100681.03
2019-05-18T08:12:06.805Z,100679.05
2019-05-18T08:14:34.505Z,100669.44
2019-05-18T08:17:05.292Z,100673.23
2019-05-18T08:19:33.168Z,100666.16
2019-05-18T08:22:00.983Z,100669.23
2019-05-18T08:24:28.768Z,100672.48
2019-05-18T08:26:57.617Z,100669.94
2019-05-18T08:29:25.345Z,100666.66
2019-05-18T08:31:53.218Z,100669.73
2019-05-18T08:34:21.034Z,100669.88
2019-05-18T08:36:48.773Z,100675.92
2019-05-18T08:39:16.473Z,100682.64
2019-05-18T08:41:44.325Z,100682.70
2019-05-18T08:44:12.059Z,100684.36
2019-05-18T08:46:39.766Z,100682.27
2019-05-18T08:49:07.588Z,100676.55
2019-05-18T08:51:35.347Z,100676.41
2019-05-18T08:54:03.272Z,100684.64
2019-05-18T08:56:31.000Z,100686.70
2019-05-18T08:58:58.743Z,100683.97
2019-05-18T09:01:29.570Z,100683.27
2019-05-18T09:03:57.435Z,100683.67
2019-05-18T09:06:25.279Z,100678.79
2019-05-18T09:08:53.002Z,100688.73
2019-05-18T09:11:20.930Z,100693.01
2019-05-18T09:13:48.804Z,100687.52
2019-05-18T09:16:16.559Z,100692.06
2019-05-18T09:18:44.318Z,100691.62
2019-05-18T09:21:12.327Z,100696.95
2019-05-18T09:23:40.042Z,100686.92
2019-05-18T09:26:07.967Z,100692.19
2019-05-18T09:28:35.708Z,100687.03
2019-05-18T09:31:03.432Z,100684.41
2019-05-18T09:33:31.475Z,100696.73
2019-05-18T09:35:59.201Z,100700.68
2019-05-18T09:38:38.304Z,100688.71
2019-05-18T09:41:06.008Z,100687.55
2019-05-18T09:43:33.791Z,100684.41
2019-05-18T09:46:01.734Z,100689.78
2019-05-18T09:48:29.646Z,100687.86
2019-05-18T09:50:57.367Z,100679.63
2019-05-18T09:53:25.087Z,100683.07
2019-05-18T09:55:52.975Z,100676.55
2019-05-18T09:58:20.692Z,100682.30
2019-05-18T10:00:48.942Z,100679.02
2019-05-18T10:03:18.438Z,100681.06
2019-05-18T10:05:46.227Z,100682.17
2019-05-18T10:08:14.020Z,100672.70
2019-05-18T10:10:41.759Z,100677.73
2019-05-18T10:13:09.693Z,100685.27
2019-05-18T10:15:37.461Z,100677.27
2019-05-18T10:18:05.366Z,100673.46
2019-05-18T10:20:33.196Z,100677.08
2019-05-18T10:23:12.406Z,100676.45
2019-05-18T10:25:30.635Z,100674.53
2019-05-18T10:27:58.488Z,100674.51
2019-05-18T10:30:26.200Z,100675.62
2019-05-18T10:32:54.033Z,100677.03
2019-05-18T10:35:21.740Z,100665.75
2019-05-18T10:37:49.559Z,100664.36
2019-05-18T10:40:17.942Z,100670.56
2019-05-18T10:42:45.660Z,100668.67
2019-05-18T10:45:14.327Z,100674.35
2019-05-18T10:47:42.028Z,100670.36
2019-05-18T10:50:10.525Z,100665.61
2019-05-18T10:52:38.214Z,100669.45
2019-05-18T10:55:06.141Z,100659.04
2019-05-18T10:57:33.841Z,100660.31
2019-05-18T11:00:01.825Z,100659.12
2019-05-18T11:02:29.727Z,100651.49
2019-05-18T11:04:57.431Z,100663.41
2019-05-18T11:07:28.713Z,100654.30
2019-05-18T11:09:54.853Z,100657.84
2019-05-18T11:12:22.547Z,100649.95
2019-05-18T11:14:50.366Z,100648.40
2019-05-18T11:17:18.075Z,100651.13
2019-05-18T11:19:45.844Z,100646.76
2019-05-18T11:22:13.692Z,100652.73
2019-05-18T11:24:41.423Z,100649.94
2019-05-18T11:27:09.183Z,100652.05
2019-05-18T11:29:36.985Z,100649.39
2019-05-18T11:32:04.722Z,100648.57
2019-05-18T11:34:32.518Z,100653.54
2019-05-18T11:37:03.099Z,100657.23
2019-05-18T11:39:29.898Z,100651.27
2019-05-18T11:41:57.731Z,100650.45
2019-05-18T11:44:25.553Z,100645.59
2019-05-18T11:46:53.255Z,100645.28
2019-05-18T11:49:21.083Z,100645.08
2019-05-18T11:51:49.285Z,100641.75
2019-05-18T11:54:16.988Z,100644.82
2019-05-18T11:56:44.817Z,100636.78
2019-05-18T11:59:15.634Z,100638.34
2019-05-18T12:01:42.212Z,100643.50
2019-05-18T12:04:09.901Z,100642.19
2019-05-18T12:06:37.721Z,100642.41
2019-05-18T12:09:05.755Z,100638.00
2019-05-18T12:11:33.595Z,100638.42
2019-05-18T12:14:01.314Z,100642.09
2019-05-18T12:16:29.127Z,100638.40
2019-05-18T12:18:57.728Z,100635.42
2019-05-18T12:21:25.617Z,100622.22
2019-05-18T12:23:54.674Z,100632.45
2019-05-18T12:26:22.382Z,100624.62
2019-05-18T12:28:50.075Z,100625.77
2019-05-18T12:31:17.990Z,100627.27
2019-05-18T12:33:46.863Z,100625.25
2019-05-18T12:36:15.729Z,100632.78
2019-05-18T12:38:43.804Z,100636.38
2019-05-18T12:41:11.643Z,100625.33
2019-05-18T12:43:39.353Z,100622.31
2019-05-18T12:46:07.258Z,100631.60
2019-05-18T12:48:35.132Z,100625.95
2019-05-18T12:51:02.997Z,100630.63
2019-05-18T12:53:32.530Z,100631.84
2019-05-18T12:56:00.397Z,100635.88
2019-05-18T12:58:28.135Z,100635.52
2019-05-18T13:00:56.017Z,100631.33
2019-05-18T13:03:23.741Z,100633.95
2019-05-18T13:05:51.794Z,100633.16
2019-05-18T13:08:19.793Z,100629.41
2019-05-18T13:10:47.790Z,100633.33
2019-05-18T13:13:15.708Z,100636.31
2019-05-18T13:15:43.443Z,100629.92
2019-05-18T13:18:11.173Z,100626.44
2019-05-18T13:20:39.111Z,100634.64
2019-05-18T13:23:07.056Z,100637.33
2019-05-18T13:25:36.462Z,100637.05
2019-05-18T13:28:04.369Z,100628.03
2019-05-18T13:30:32.083Z,100634.86
2019-05-18T13:33:00.020Z,100627.25
2019-05-18T13:35:27.758Z,100626.29
2019-05-18T13:37:55.568Z,100625.47
2019-05-18T13:40:23.968Z,100621.62
2019-05-18T13:42:51.705Z,100615.05
2019-05-18T13:45:19.760Z,100616.07
2019-05-18T13:47:47.739Z,100622.50
2019-05-18T13:50:15.517Z,100616.64
2019-05-18T13:52:43.274Z,100618.43
2019-05-18T13:55:11.473Z,100611.85
2019-05-18T13:57:39.342Z,100608.17
2019-05-18T14:00:08.311Z,100615.07
2019-05-18T14:02:36.314Z,100612.60
2019-05-18T14:05:04.950Z,100613.80
2019-05-18T14:07:33.094Z,100614.25
2019-05-18T14:10:01.132Z,100612.98
2019-05-18T14:12:29.124Z,100613.88
2019-05-18T14:14:56.982Z,100616.16
2019-05-18T14:17:25.860Z,100612.77
2019-05-18T14:19:53.743Z,100614.53
2019-05-18T14:22:21.471Z,100612.63
2019-05-18T14:24:49.358Z,100612.91
2019-05-18T14:27:17.108Z,100619.53
2019-05-18T14:29:44.824Z,100617.20
2019-05-18T14:32:12.623Z,100614.68
2019-05-18T14:34:40.424Z,100618.05
2019-05-18T14:37:08.304Z,100617.84
2019-05-18T14:39:36.007Z,100616.85
2019-05-18T14:42:03.739Z,100616.49
2019-05-18T14:44:31.534Z,100609.45
2019-05-18T14:46:59.427Z,100610.72
2019-05-18T14:49:27.286Z,100613.69
2019-05-18T14:51:55.088Z,100615.59
2019-05-18T14:54:25.508Z,100613.17
2019-05-18T14:56:52.541Z,100606.72
2019-05-18T14:59:20.316Z,100615.11
2019-05-18T15:01:48.060Z,100615.55
2019-05-18T15:04:16.033Z,100617.60
2019-05-18T15:06:43.858Z,100620.14
2019-05-18T15:09:11.555Z,100619.05
2019-05-18T15:11:39.310Z,100617.46
2019-05-18T15:14:07.135Z,100623.75
2019-05-18T15:16:35.123Z,100622.37
2019-05-18T15:19:02.828Z,100624.80
2019-05-18T15:21:30.535Z,100624.98
2019-05-18T15:23:58.641Z,100621.84
2019-05-18T15:26:26.331Z,100619.43
2019-05-18T15:28:56.030Z,100623.61
2019-05-18T15:31:24.193Z,100621.18
2019-05-18T15:33:53.690Z,100619.50
2019-05-18T15:36:21.447Z,100616.00
2019-05-18T15:38:49.294Z,100620.78
2019-05-18T15:41:17.108Z,100623.97
2019-05-18T15:43:44.817Z,100617.05
2019-05-18T15:46:12.556Z,100619.47
2019-05-18T15:48:40.515Z,100616.63
2019-05-18T15:51:08.317Z,100627.26
2019-05-18T15:53:36.017Z,100620.33
2019-05-18T15:56:06.143Z,100627.88
2019-05-18T15:58:33.591Z,100622.22
2019-05-18T16:01:01.331Z,100628.70
2019-05-18T16:03:29.174Z,100628.30
2019-05-18T16:05:56.918Z,100627.05
2019-05-18T16:08:24.823Z,100627.52
2019-05-18T16:10:57.145Z,100631.40
2019-05-18T16:13:23.975Z,100629.15
2019-05-18T16:15:52.002Z,100631.24
2019-05-18T16:18:25.091Z,100627.95
2019-05-18T16:20:52.788Z,100630.09
2019-05-18T16:23:20.615Z,100630.66
2019-05-18T16:25:48.332Z,100626.23
2019-05-18T16:28:16.048Z,100628.95
2019-05-18T16:30:45.790Z,100629.53
2019-05-18T16:33:13.611Z,100629.18
2019-05-18T16:35:41.547Z,100628.27
2019-05-18T16:38:09.421Z,100633.63
2019-05-18T16:40:37.108Z,100630.13
2019-05-18T16:43:05.049Z,100628.95
2019-05-18T16:45:32.908Z,100622.05
2019-05-18T16:48:00.638Z,100628.53
2019-05-18T16:50:28.535Z,100630.94
2019-05-18T16:52:56.516Z,100634.84
2019-05-18T16:55:24.236Z,100633.98
2019-05-18T16:57:51.988Z,100638.66
2019-05-18T17:00:20.367Z,100636.99
2019-05-18T17:02:48.110Z,100646.95
2019-05-18T17:05:16.204Z,100646.84
2019-05-18T17:07:43.947Z,100646.16
2019-05-18T17:10:12.402Z,100649.06
2019-05-18T17:12:40.371Z,100648.31
2019-05-18T17:15:08.950Z,100653.72
2019-05-18T17:17:36.863Z,100651.52
2019-05-18T17:20:05.605Z,100652.95
2019-05-18T17:22:34.045Z,100654.06
2019-05-18T17:25:02.230Z,100654.19
2019-05-18T17:27:30.247Z,100650.20
2019-05-18T17:32:26.429Z,100666.30
2019-05-18T17:34:54.367Z,100674.17
2019-05-18T17:37:22.216Z,100668.02
2019-05-18T17:39:50.326Z,100675.38
2019-05-18T17:42:18.095Z,100680.87
2019-05-18T17:44:48.021Z,100684.52
2019-05-18T17:47:15.904Z,100687.59
2019-05-18T17:49:45.451Z,100679.41
2019-05-18T17:52:13.359Z,100690.95
2019-05-18T17:54:41.561Z,100685.00
2019-05-18T17:57:09.476Z,100689.43
2019-05-18T17:59:37.488Z,100692.42
2019-05-18T18:02:05.538Z,100697.05
2019-05-18T18:04:33.622Z,100692.86
2019-05-18T18:07:01.495Z,100697.78
2019-05-18T18:09:29.524Z,100700.27
2019-05-18T18:11:57.448Z,100705.40
2019-05-18T18:14:25.336Z,100713.06
2019-05-18T18:16:53.193Z,100705.63
2019-05-18T18:19:23.227Z,100711.58
2019-05-18T18:21:51.078Z,100709.11
2019-05-18T18:24:18.810Z,100710.33
2019-05-18T18:26:46.835Z,100719.05
2019-05-18T18:29:14.610Z,100715.98
2019-05-18T18:31:42.485Z,100711.69
2019-05-18T18:34:11.031Z,100724.34
2019-05-18T18:36:40.771Z,100734.29
2019-05-18T18:39:08.606Z,100730.41
2019-05-18T18:41:39.204Z,100727.91
2019-05-18T18:44:06.952Z,100739.79
2019-05-18T18:46:36.835Z,100738.53
2019-05-18T18:49:04.742Z,100729.23
2019-05-18T18:51:36.467Z,100750.38
2019-05-18T18:54:04.429Z,100743.70
2019-05-18T18:56:33.291Z,100750.84
2019-05-18T18:59:01.228Z,100746.50
2019-05-18T19:01:28.973Z,100751.78
2019-05-18T19:03:57.234Z,100747.48
2019-05-18T19:06:25.359Z,100748.33
2019-05-18T19:08:53.226Z,100750.16
2019-05-18T19:11:21.129Z,100746.40
2019-05-18T19:13:48.905Z,100750.50
2019-05-18T19:16:16.948Z,100749.58
2019-05-18T19:18:45.240Z,100752.28
2019-05-18T19:21:13.199Z,100764.44
2019-05-18T19:23:41.165Z,100762.77
2019-05-18T19:26:09.159Z,100770.66
2019-05-18T19:28:36.946Z,100765.75
2019-05-18T19:31:04.884Z,100778.73
2019-05-18T19:33:32.669Z,100778.77
2019-05-18T19:36:00.385Z,100779.99
2019-05-18T19:38:28.307Z,100780.45
2019-05-18T19:40:56.049Z,100774.33
2019-05-18T19:43:24.294Z,100778.84
2019-05-18T19:45:52.314Z,100779.96
2019-05-18T19:48:20.751Z,100779.55
2019-05-18T19:50:48.506Z,100775.22
2019-05-18T19:53:17.731Z,100782.71
2019-05-18T19:55:47.468Z,100782.05
2019-05-18T19:58:15.250Z,100787.75
2019-05-18T20:00:43.223Z,100792.12
2019-05-18T20:03:10.975Z,100791.19
2019-05-18T20:05:38.899Z,100796.22
2019-05-18T20:08:06.692Z,100797.67
2019-05-18T20:10:38.426Z,100792.69
2019-05-18T20:13:06.292Z,100801.20
2019-05-18T20:15:35.256Z,100804.23
2019-05-18T20:18:03.251Z,100794.13
2019-05-18T20:20:31.092Z,100793.73
2019-05-18T20:22:58.818Z,100797.03
2019-05-18T20:25:26.947Z,100802.42
2019-05-18T20:27:54.686Z,100807.50
2019-05-18T20:30:22.753Z,100810.47
2019-05-18T20:32:50.890Z,100808.77
2019-05-18T20:35:20.845Z,100804.06
2019-05-18T20:37:48.584Z,100804.22
2019-05-18T20:40:17.673Z,100805.38
2019-05-18T20:42:45.440Z,100804.45
2019-05-18T20:45:13.206Z,100804.56
2019-05-18T20:47:41.085Z,100814.70
2019-05-18T20:50:10.702Z,100812.90
2019-05-18T20:52:38.763Z,100810.23
2019-05-18T20:55:07.477Z,100806.73
2019-05-18T20:57:37.025Z,100812.66
2019-05-18T21:00:05.151Z,100813.23
2019-05-18T21:02:32.873Z,100807.91
2019-05-18T21:05:04.281Z,100812.31
2019-05-18T21:07:32.350Z,100809.38
2019-05-18T21:10:00.091Z,100813.62
2019-05-18T21:12:28.014Z,100805.72
2019-05-18T21:14:56.502Z,100804.06
2019-05-18T21:17:24.423Z,100808.89
2019-05-18T21:19:52.413Z,100808.48
2019-05-18T21:22:20.206Z,100806.09
2019-05-18T21:24:48.265Z,100808.14
2019-05-18T21:27:17.849Z,100813.05
2019-05-18T21:29:45.612Z,100815.30
2019-05-18T21:32:13.481Z,100814.97
2019-05-18T21:34:41.237Z,100818.71
2019-05-18T21:37:08.951Z,100819.47
2019-05-18T21:39:37.057Z,100823.55
2019-05-18T21:42:05.304Z,100813.00
2019-05-18T21:44:33.178Z,100823.87
2019-05-18T21:47:00.920Z,100814.24
2019-05-18T21:49:28.868Z,100816.63
2019-05-18T21:51:56.634Z,100812.97
2019-05-18T21:54:25.495Z,100814.58
2019-05-18T21:56:53.461Z,100819.76
2019-05-18T21:59:21.706Z,100824.35
2019-05-18T22:01:49.422Z,100823.38
2019-05-18T22:04:17.406Z,100815.80
2019-05-18T22:06:45.123Z,100812.31
2019-05-18T22:09:12.824Z,100805.58
2019-05-18T22:11:40.681Z,100806.88
2019-05-18T22:14:08.569Z,100802.89
2019-05-18T22:16:36.282Z,100808.45
2019-05-18T22:19:04.244Z,100801.50
2019-05-18T22:21:32.123Z,100800.09
2019-05-18T22:23:59.899Z,100803.83
2019-05-18T22:26:27.823Z,100791.50
2019-05-18T22:28:57.382Z,100791.38
2019-05-18T22:31:25.114Z,100785.48
2019-05-18T22:33:52.946Z,100785.84
2019-05-18T22:36:20.659Z,100782.24
2019-05-18T22:38:48.373Z,100781.65
2019-05-18T22:41:16.265Z,100784.52
2019-05-18T22:43:44.013Z,100780.20
2019-05-18T22:46:11.803Z,100779.70
2019-05-18T22:48:41.645Z,100782.22
2019-05-18T22:51:09.692Z,100781.86
2019-05-18T22:53:37.448Z,100777.77
2019-05-18T22:56:05.199Z,100786.80
2019-05-18T22:58:33.106Z,100791.27
2019-05-18T23:01:01.018Z,100786.34
2019-05-18T23:03:28.731Z,100783.20
2019-05-18T23:05:56.621Z,100784.78
2019-05-18T23:08:24.349Z,100775.41
2019-05-18T23:10:52.265Z,100780.58
2019-05-18T23:13:20.154Z,100780.09
2019-05-18T23:15:49.855Z,100778.17
2019-05-18T23:18:17.767Z,100781.06
2019-05-18T23:20:45.639Z,100777.08
2019-05-18T23:23:13.856Z,100776.12
2019-05-18T23:25:41.645Z,100765.41
2019-05-18T23:28:09.405Z,100773.45
2019-05-18T23:30:37.207Z,100770.69
2019-05-18T23:33:05.058Z,100769.48
2019-05-18T23:35:33.636Z,100769.13
2019-05-18T23:38:04.629Z,100765.52
2019-05-18T23:40:32.569Z,100762.39
2019-05-18T23:43:00.530Z,100768.27
2019-05-18T23:45:28.314Z,100765.16
2019-05-18T23:47:59.409Z,100767.08
2019-05-18T23:50:26.458Z,100766.13
2019-05-18T23:52:54.166Z,100768.78
2019-05-18T23:55:22.123Z,100763.39
2019-05-18T23:57:49.868Z,100754.22
